Puerto Montt, Chile
Current Conditions -  °F | °C
As of 4:00 PM on Tuesday 25 Nov 2014 (Local Time) from SCTE Reporting Station
Scattered Clouds Scattered Clouds  
Wind Chill: 61°   Ceiling: Unl
Heat Index: 61°   Visibility: 6mi
Dew Point: 46°   Wind: 10mph
Humidity: 59%   Direction: 130°SE
Pressure: 30.12"   Gusts: NA
Location:  41.47°S, 72.94°W
Report Text: SCTE 252000Z 13009KT 9999 SCT040 SCT100 16/08 Q1020 NOSIG
Loading
Personal Weather Stations






























Interactive Weather Map New forecast layout! Learn more

10-Day Weather Forecast

Advertisements
Track Severe Weather on mobile